Time;durP1;ratioP1;P1;durP2;ratioP2;P2;SDS_P1;SDS_P2;PMS_P1;PMS_P2;Temp;Humidity;BMP_temperature;BMP_pressure;BME280_temperature;BME280_humidity;BME280_pressure;Samples;Min_cycle;Max_cycle;Signal;HPM_P1;HPM_P2
2022/07/23 00:02:07;;;;;;;4.93;2.17;;;15.30;99.90;;;;;;4999720;28;20054;-75
2022/07/23 00:04:33;;;;;;;7.22;2.30;;;15.10;99.90;;;;;;5017366;28;20089;-75
2022/07/23 00:06:59;;;;;;;4.35;2.00;;;15.40;99.90;;;;;;4999944;28;20081;-75
2022/07/23 00:09:25;;;;;;;5.15;2.10;;;15.20;99.90;;;;;;4999668;28;20097;-75
2022/07/23 00:11:50;;;;;;;4.97;2.20;;;15.20;99.90;;;;;;4999784;28;20510;-76
2022/07/23 00:14:17;;;;;;;7.70;2.22;;;15.80;99.90;;;;;;4982989;28;20408;-76
2022/07/23 00:16:43;;;;;;;6.25;2.40;;;15.30;99.90;;;;;;5016723;28;20526;-75
2022/07/23 00:19:08;;;;;;;7.65;2.50;;;14.80;99.90;;;;;;5016633;28;20054;-76
2022/07/23 00:21:34;;;;;;;8.02;2.30;;;14.70;99.90;;;;;;5015961;28;20058;-75
2022/07/23 00:24:01;;;;;;;6.68;2.00;;;15.20;99.90;;;;;;4998911;28;20050;-75
2022/07/23 00:26:26;;;;;;;6.10;2.30;;;15.00;99.90;;;;;;4982782;28;20058;-75
2022/07/23 00:28:52;;;;;;;5.45;2.58;;;;;;;;;;4999500;28;20053;-75
2022/07/23 00:31:18;;;;;;;6.43;2.70;;;14.70;99.90;;;;;;5016270;28;20455;-75
2022/07/23 00:33:44;;;;;;;8.55;3.10;;;14.80;99.90;;;;;;5017170;28;20125;-75
2022/07/23 00:36:09;;;;;;;8.45;3.28;;;15.30;99.90;;;;;;4998820;28;20050;-75
2022/07/23 00:38:35;;;;;;;10.05;3.42;;;14.20;99.90;;;;;;4998834;28;20415;-75
2022/07/23 00:41:00;;;;;;;8.48;3.60;;;14.70;99.90;;;;;;5016462;28;20046;-75
2022/07/23 00:43:26;;;;;;;9.20;3.30;;;14.70;99.90;;;;;;4998778;28;20046;-76
2022/07/23 00:45:52;;;;;;;11.63;3.50;;;15.00;99.90;;;;;;5016462;28;20133;-75
2022/07/23 00:48:17;;;;;;;8.15;3.70;;;14.80;99.90;;;;;;4998866;28;20104;-76
2022/07/23 00:50:43;;;;;;;6.20;3.70;;;14.60;99.90;;;;;;4998422;28;20060;-75
2022/07/23 00:53:09;;;;;;;7.05;3.83;;;14.20;99.90;;;;;;5016552;28;20081;-76
2022/07/23 00:55:35;;;;;;;11.15;3.65;;;17.20;99.90;;;;;;5016492;28;20504;-75
2022/07/23 00:58:01;;;;;;;7.80;4.00;;;14.40;99.90;;;;;;5016300;28;20054;-75
2022/07/23 01:00:27;;;;;;;7.80;3.88;;;14.40;99.90;;;;;;5016347;28;20096;-75
2022/07/23 01:02:53;;;;;;;7.07;3.65;;;14.20;99.90;;;;;;5014901;28;20053;-75
2022/07/23 01:05:21;;;;;;;5.45;3.20;;;14.10;99.90;;;;;;5016066;28;20061;-75
2022/07/23 01:07:49;;;;;;;8.73;3.60;;;14.40;99.90;;;;;;5015630;28;20111;-76
2022/07/23 01:10:36;;;;;;;8.55;3.60;;;14.50;99.90;;;;;;5015820;28;20049;-75
2022/07/23 01:13:09;;;;;;;6.65;3.38;;;14.20;99.90;;;;;;5014490;28;20053;-75
2022/07/23 01:15:37;;;;;;;8.50;3.90;;;14.40;99.90;;;;;;5015777;28;20046;-75
2022/07/23 01:18:04;;;;;;;5.97;4.00;;;14.30;99.90;;;;;;5015344;28;20556;-75
2022/07/23 01:20:31;;;;;;;7.63;4.07;;;14.20;99.90;;;;;;5015810;28;20062;-75
2022/07/23 01:22:56;;;;;;;7.13;3.85;;;15.70;99.90;;;;;;5015398;28;20104;-75
2022/07/23 01:25:23;;;;;;;5.90;3.90;;;;;;;;;;4998277;28;20484;-75
2022/07/23 01:27:49;;;;;;;7.40;3.90;;;14.30;99.90;;;;;;4997712;28;20480;-75
2022/07/23 01:30:15;;;;;;;12.05;4.10;;;;;;;;;;4997924;28;20052;-76
2022/07/23 01:32:41;;;;;;;6.30;3.78;;;14.50;99.90;;;;;;5014857;28;20046;-75
2022/07/23 01:35:07;;;;;;;10.38;4.40;;;14.40;99.90;;;;;;4981488;28;20137;-75
2022/07/23 01:37:33;;;;;;;8.88;4.22;;;14.80;99.90;;;;;;4997456;28;20061;-75
2022/07/23 01:39:59;;;;;;;7.80;3.53;;;14.40;99.90;;;;;;5015151;28;20420;-75
2022/07/23 01:42:25;;;;;;;6.10;4.00;;;14.00;99.90;;;;;;4997931;28;20086;-75
2022/07/23 01:44:51;;;;;;;7.13;4.00;;;;;;;;;;4997546;28;20061;-75
2022/07/23 01:47:17;;;;;;;8.27;4.80;;;14.20;99.90;;;;;;4997371;28;20058;-76
2022/07/23 01:49:42;;;;;;;6.72;4.50;;;14.30;99.90;;;;;;5015211;28;20052;-75
2022/07/23 01:52:10;;;;;;;6.65;4.80;;;14.40;99.90;;;;;;5015519;28;20468;-75
2022/07/23 01:54:38;;;;;;;7.30;4.50;;;14.70;99.90;;;;;;4997146;28;20415;-75
2022/07/23 01:57:04;;;;;;;8.32;4.60;;;14.50;99.90;;;;;;5014779;28;20060;-75
2022/07/23 01:59:30;;;;;;;7.78;4.80;;;14.40;99.90;;;;;;4997380;28;20049;-75
2022/07/23 02:01:56;;;;;;;8.93;4.38;;;14.80;99.90;;;;;;5014434;28;20104;-76
2022/07/23 02:04:26;;;;;;;7.40;4.70;;;;;;;;;;5014756;28;20045;-75
2022/07/23 02:06:53;;;;;;;9.23;4.50;;;14.30;99.90;;;;;;4996992;28;20569;-75
2022/07/23 02:09:19;;;;;;;11.95;4.90;;;14.40;99.90;;;;;;4997483;28;20104;-75
2022/07/23 02:11:45;;;;;;;8.43;4.70;;;14.50;99.90;;;;;;4980641;28;20500;-75
2022/07/23 02:14:11;;;;;;;9.63;4.60;;;;;;;;;;4980629;28;20061;-75
2022/07/23 02:16:37;;;;;;;6.85;4.80;;;14.30;99.90;;;;;;5014468;28;20050;-75
2022/07/23 02:19:03;;;;;;;8.68;4.80;;;14.40;99.90;;;;;;4997004;28;20120;-75
2022/07/23 02:21:29;;;;;;;7.60;4.60;;;14.30;99.90;;;;;;4997202;28;20053;-75
2022/07/23 02:23:58;;;;;;;8.52;4.07;;;14.70;99.90;;;;;;5014878;28;20050;-75
2022/07/23 02:26:23;;;;;;;6.60;4.10;;;14.30;99.90;;;;;;5014198;28;20058;-75
2022/07/23 02:28:49;;;;;;;7.72;3.70;;;16.10;99.90;;;;;;4996294;28;20122;-75
2022/07/23 02:31:14;;;;;;;4.97;3.38;;;14.10;99.90;;;;;;4997237;28;20045;-75
2022/07/23 02:33:40;;;;;;;6.45;4.10;;;15.10;99.90;;;;;;5014519;28;20100;-75
2022/07/23 02:36:06;;;;;;;8.32;4.30;;;14.10;99.90;;;;;;4996800;28;20081;-75
2022/07/23 02:38:32;;;;;;;7.57;4.28;;;;;;;;;;4996336;28;20061;-75
2022/07/23 02:40:57;;;;;;;7.82;3.80;;;13.90;99.90;;;;;;5014040;28;20050;-75
2022/07/23 02:43:23;;;;;;;8.85;4.20;;;13.90;99.90;;;;;;4996548;28;20491;-75
2022/07/23 02:45:48;;;;;;;5.40;3.97;;;13.80;99.90;;;;;;4996750;28;20480;-75
2022/07/23 02:48:14;;;;;;;10.43;4.60;;;14.00;99.90;;;;;;5014140;28;20480;-75
2022/07/23 02:50:40;;;;;;;7.18;4.50;;;13.70;99.90;;;;;;4996089;28;20050;-75
2022/07/23 02:53:06;;;;;;;9.10;4.70;;;;;;;;;;4996417;28;20050;-75
2022/07/23 02:55:31;;;;;;;7.40;4.95;;;13.80;99.90;;;;;;4996339;28;20511;-75
2022/07/23 02:58:00;;;;;;;8.18;4.72;;;;;;;;;;4996776;28;20053;-75
2022/07/23 03:00:26;;;;;;;7.10;4.50;;;14.10;99.90;;;;;;4996169;28;20123;-75
2022/07/23 03:02:51;;;;;;;6.22;4.55;;;13.90;99.90;;;;;;5013307;28;20061;-75
2022/07/23 03:05:17;;;;;;;8.00;4.70;;;16.30;99.90;;;;;;5013884;28;20081;-75
2022/07/23 03:07:43;;;;;;;8.57;4.38;;;;;;;;;;4996282;28;20411;-76
2022/07/23 03:10:09;;;;;;;7.22;4.40;;;13.80;99.90;;;;;;5013892;28;20054;-74
2022/07/23 03:12:34;;;;;;;8.15;4.47;;;13.50;99.90;;;;;;4996040;28;20053;-75
2022/07/23 03:15:00;;;;;;;6.88;4.20;;;;;;;;;;4964071;28;20066;-75
2022/07/23 03:17:26;;;;;;;6.78;4.30;;;;;;;;;;4995646;28;20131;-75
2022/07/23 03:19:52;;;;;;;11.30;4.72;;;;;;;;;;4996474;28;20384;-75
2022/07/23 03:22:18;;;;;;;7.00;4.50;;;;;;;;;;5013739;28;20046;-75
2022/07/23 03:24:56;;;;;;;7.35;4.68;;;13.30;99.90;;;;;;4995916;28;20053;-75
2022/07/23 03:27:24;;;;;;;6.95;4.57;;;13.10;99.90;;;;;;4999092;28;20422;-75
2022/07/23 03:29:54;;;;;;;6.20;4.38;;;13.20;99.90;;;;;;4999815;28;20080;-75
2022/07/23 03:32:21;;;;;;;9.27;4.60;;;;;;;;;;5000052;28;20085;-75
2022/07/23 03:34:48;;;;;;;8.20;4.80;;;;;;;;;;5017114;28;20076;-75
2022/07/23 03:37:14;;;;;;;6.20;4.65;;;12.60;99.90;;;;;;5017587;28;20052;-76
2022/07/23 03:39:40;;;;;;;7.45;4.68;;;;;;;;;;4999812;28;20054;-75
2022/07/23 03:42:09;;;;;;;11.13;4.60;;;;;;;;;;5000008;28;20081;-75
2022/07/23 03:44:36;;;;;;;6.95;4.43;;;13.00;99.90;;;;;;5017483;28;20113;-75
2022/07/23 03:47:06;;;;;;;7.30;4.72;;;12.60;99.90;;;;;;5000425;28;20133;-75
2022/07/23 03:49:32;;;;;;;8.15;4.47;;;;;;;;;;4983252;28;20053;-75
2022/07/23 03:51:58;;;;;;;8.32;4.60;;;13.10;99.90;;;;;;4999520;28;20113;-75
2022/07/23 03:54:24;;;;;;;9.75;4.95;;;;;;;;;;4999638;28;20053;-75
2022/07/23 03:56:50;;;;;;;7.65;4.57;;;;;;;;;;4998953;28;20137;-75
2022/07/23 03:59:16;;;;;;;8.30;4.30;;;13.00;99.90;;;;;;4999804;28;20061;-75
2022/07/23 04:01:41;;;;;;;5.95;3.58;;;12.90;99.90;;;;;;5016747;28;20042;-75
2022/07/23 04:04:08;;;;;;;8.63;3.35;;;13.40;99.90;;;;;;4983070;28;20061;-75
2022/07/23 04:06:34;;;;;;;4.10;3.70;;;;;;;;;;5016522;28;20062;-75
2022/07/23 04:09:00;;;;;;;4.00;3.33;;;;;;;;;;5016794;28;20082;-75
2022/07/23 04:11:26;;;;;;;5.07;3.00;;;;;;;;;;5017253;28;20050;-75
2022/07/23 04:13:52;;;;;;;4.53;3.22;;;13.80;99.90;;;;;;4998890;28;20398;-75
2022/07/23 04:16:18;;;;;;;5.07;3.00;;;;;;;;;;4998861;28;20050;-75
2022/07/23 04:18:44;;;;;;;5.78;3.17;;;;;;;;;;4982614;28;20054;-75
2022/07/23 04:21:09;;;;;;;5.15;4.13;;;12.80;99.90;;;;;;4982926;28;20388;-76
2022/07/23 04:23:35;;;;;;;6.60;4.20;;;12.80;99.90;;;;;;5016863;28;20057;-75
2022/07/23 04:26:01;;;;;;;6.50;4.65;;;;;;;;;;5016680;28;20476;-75
2022/07/23 04:28:26;;;;;;;7.90;4.63;;;12.80;99.90;;;;;;4998589;28;20108;-75
2022/07/23 04:30:59;;;;;;;8.70;4.95;;;13.00;99.90;;;;;;5016213;28;20114;-75
2022/07/23 04:33:25;;;;;;;8.10;4.70;;;;;;;;;;4982811;28;20065;-75
2022/07/23 04:35:53;;;;;;;10.02;4.70;;;13.30;99.90;;;;;;4982339;28;20085;-76
2022/07/23 04:38:19;;;;;;;7.32;5.05;;;;;;;;;;4997287;28;20049;-75
2022/07/23 04:40:45;;;;;;;7.47;4.63;;;12.60;99.90;;;;;;4998063;28;20439;-75
2022/07/23 04:43:11;;;;;;;8.88;4.80;;;;;;;;;;4979169;28;20058;-75
2022/07/23 04:45:37;;;;;;;8.38;4.93;;;;;;;;;;4978805;28;20050;-75
2022/07/23 04:48:03;;;;;;;8.65;4.95;;;13.70;99.90;;;;;;4978590;28;20450;-76
2022/07/23 04:50:28;;;;;;;9.57;5.15;;;14.40;99.90;;;;;;4978765;28;20046;-75
2022/07/23 04:52:54;;;;;;;7.63;5.13;;;14.40;99.90;;;;;;4996283;28;20444;-75
2022/07/23 04:55:21;;;;;;;7.85;5.05;;;15.50;99.90;;;;;;4978827;28;20058;-76
2022/07/23 04:57:46;;;;;;;8.07;4.78;;;16.50;99.90;;;;;;4995515;28;20060;-75
2022/07/23 05:00:12;;;;;;;7.55;4.50;;;17.70;99.90;;;;;;4995813;28;20408;-75
2022/07/23 05:02:38;;;;;;;7.47;4.22;;;18.50;99.90;;;;;;4978306;28;20061;-76
2022/07/23 05:05:04;;;;;;;10.73;4.28;;;18.50;99.90;;;;;;4995730;28;20038;-75
2022/07/23 05:07:31;;;;;;;7.22;3.78;;;20.10;99.90;;;;;;4978712;28;20050;-76
2022/07/23 05:09:57;;;;;;;6.80;3.72;;;20.60;99.90;;;;;;4962463;28;20062;-76
2022/07/23 05:12:22;;;;;;;7.50;3.90;;;21.70;99.90;;;;;;4978765;28;20046;-76
2022/07/23 05:14:48;;;;;;;5.65;3.50;;;21.70;99.90;;;;;;4995836;28;20174;-76
2022/07/23 05:17:13;;;;;;;5.95;3.20;;;22.40;99.90;;;;;;4996104;28;20069;-76
2022/07/23 05:19:39;;;;;;;5.35;3.20;;;23.50;99.90;;;;;;4978259;28;20047;-76
2022/07/23 05:22:05;;;;;;;6.95;2.97;;;23.80;99.90;;;;;;4978423;28;20057;-75
2022/07/23 05:24:30;;;;;;;4.47;2.85;;;25.40;99.90;;;;;;4995523;28;20133;-76
2022/07/23 05:26:56;;;;;;;7.32;3.40;;;25.20;99.90;;;;;;4978348;28;20090;-76
2022/07/23 05:29:21;;;;;;;6.00;2.80;;;24.70;99.30;;;;;;4962482;28;20046;-76
2022/07/23 05:31:50;;;;;;;10.68;2.80;;;26.00;94.80;;;;;;4995309;28;20093;-75
2022/07/23 05:34:15;;;;;;;3.88;2.85;;;25.90;91.70;;;;;;4978252;28;20089;-76
2022/07/23 05:36:41;;;;;;;8.02;2.72;;;26.90;90.00;;;;;;4996183;28;20116;-76
2022/07/23 05:39:07;;;;;;;8.23;2.70;;;26.80;85.70;;;;;;4995665;28;20050;-75
2022/07/23 05:41:32;;;;;;;5.47;2.50;;;27.00;86.60;;;;;;4978220;28;20089;-76
2022/07/23 05:43:58;;;;;;;7.35;2.38;;;27.10;78.90;;;;;;4977987;28;20513;-76
2022/07/23 05:46:24;;;;;;;8.00;2.50;;;27.50;74.70;;;;;;4995320;28;20050;-76
2022/07/23 05:48:49;;;;;;;5.78;2.40;;;27.70;81.20;;;;;;4977797;28;20050;-76
2022/07/23 05:51:25;;;;;;;5.82;2.17;;;27.90;70.10;;;;;;4977897;28;20050;-77
2022/07/23 05:53:51;;;;;;;9.65;2.38;;;28.10;65.90;;;;;;4994976;28;20460;-76
2022/07/23 05:56:18;;;;;;;5.95;2.40;;;28.30;65.90;;;;;;4995219;28;20042;-76
2022/07/23 05:58:44;;;;;;;7.55;2.30;;;28.70;64.10;;;;;;4977998;28;20050;-76
2022/07/23 06:01:11;;;;;;;4.38;2.22;;;;;;;;;;4995388;28;20393;-77
2022/07/23 06:03:38;;;;;;;4.25;2.10;;;29.00;60.70;;;;;;4977468;28;20054;-76
2022/07/23 06:06:04;;;;;;;5.57;2.10;;;29.40;64.80;;;;;;4994956;28;20519;-75
2022/07/23 06:08:30;;;;;;;7.22;2.03;;;29.60;58.60;;;;;;4995105;28;20093;-76
2022/07/23 06:10:55;;;;;;;5.03;2.40;;;30.00;57.80;;;;;;4994728;28;20575;-76
2022/07/23 06:13:21;;;;;;;6.00;2.17;;;30.00;63.90;;;;;;4977426;28;20140;-76
2022/07/23 06:15:46;;;;;;;5.55;2.60;;;30.20;57.20;;;;;;4994723;28;20062;-76
2022/07/23 06:18:12;;;;;;;4.65;2.22;;;30.20;55.50;;;;;;4994673;28;20058;-75
2022/07/23 06:20:38;;;;;;;6.28;2.20;;;30.10;62.20;;;;;;4962206;28;20043;-75
2022/07/23 06:23:04;;;;;;;4.47;1.77;;;;;;;;;;4979905;28;20100;-76
2022/07/23 06:25:31;;;;;;;4.28;2.20;;;30.30;53.20;;;;;;4977732;28;20061;-76
2022/07/23 06:27:57;;;;;;;5.95;2.30;;;30.60;59.90;;;;;;4981771;28;20524;-76
2022/07/23 06:30:23;;;;;;;5.93;2.30;;;30.40;53.10;;;;;;5012691;28;20084;-76
2022/07/23 06:32:49;;;;;;;4.63;2.00;;;30.40;52.80;;;;;;4988176;28;20061;-76
2022/07/23 06:35:15;;;;;;;6.43;2.08;;;30.70;52.50;;;;;;4988605;28;20085;-76
2022/07/23 06:37:41;;;;;;;5.47;2.00;;;31.20;58.50;;;;;;5004014;28;20042;-76
2022/07/23 06:40:07;;;;;;;5.38;2.13;;;31.00;51.40;;;;;;5001227;28;20131;-76
2022/07/23 06:42:36;;;;;;;4.50;1.70;;;31.30;50.50;;;;;;4999727;28;20051;-75
2022/07/23 06:45:04;;;;;;;7.40;1.90;;;31.90;57.60;;;;;;4976117;28;20145;-76
2022/07/23 06:47:29;;;;;;;5.43;2.20;;;31.90;49.40;;;;;;4976247;28;20101;-76
2022/07/23 06:49:55;;;;;;;4.82;1.90;;;31.60;55.70;;;;;;4959842;28;20062;-75
2022/07/23 06:52:21;;;;;;;6.32;2.10;;;31.80;49.00;;;;;;4993151;28;20441;-75
2022/07/23 06:54:46;;;;;;;3.92;1.83;;;31.60;56.40;;;;;;4993542;28;20057;-75
2022/07/23 06:57:12;;;;;;;3.42;1.75;;;32.80;49.50;;;;;;4993689;28;20054;-76
2022/07/23 06:59:40;;;;;;;5.10;2.00;;;32.10;48.50;;;;;;4975825;28;20058;-76
2022/07/23 07:02:06;;;;;;;5.30;1.67;;;31.80;48.00;;;;;;4975293;28;20100;-76
2022/07/23 07:04:32;;;;;;;4.60;1.83;;;31.80;47.50;;;;;;4993342;28;20501;-76
2022/07/23 07:06:59;;;;;;;3.45;1.70;;;31.60;47.20;;;;;;4975825;28;20133;-76
2022/07/23 07:09:25;;;;;;;3.85;1.60;;;31.80;47.50;;;;;;4975643;28;20063;-76
2022/07/23 07:11:51;;;;;;;7.45;2.10;;;31.90;47.50;;;;;;4976289;28;20050;-75
2022/07/23 07:14:17;;;;;;;3.85;1.40;;;;;;;;;;4974296;28;20054;-76
2022/07/23 07:16:43;;;;;;;3.60;1.50;;;32.10;46.10;;;;;;4995733;28;20054;-76
2022/07/23 07:19:09;;;;;;;3.85;1.40;;;31.60;46.80;;;;;;5013168;28;20050;-75
2022/07/23 07:21:35;;;;;;;8.07;1.55;;;31.00;56.30;;;;;;4995435;28;21196;-75
2022/07/23 07:24:00;;;;;;;6.45;1.60;;;31.10;47.70;;;;;;4985744;28;20086;-76
2022/07/23 07:26:26;;;;;;;3.33;1.40;;;30.90;58.40;;;;;;4992976;28;20097;-75
2022/07/23 07:28:52;;;;;;;4.43;1.60;;;30.60;49.10;;;;;;4993281;28;20046;-76
2022/07/23 07:31:17;;;;;;;2.83;1.33;;;30.30;49.90;;;;;;4959158;28;20432;-76
2022/07/23 07:33:43;;;;;;;4.38;1.55;;;29.70;57.00;;;;;;4960028;28;20055;-76
2022/07/23 07:36:12;;;;;;;5.05;1.40;;;29.60;51.10;;;;;;4975619;28;20043;-76
2022/07/23 07:38:37;;;;;;;2.97;1.50;;;29.40;51.90;;;;;;4993287;28;20101;-75
2022/07/23 07:41:03;;;;;;;3.13;1.70;;;29.10;52.70;;;;;;4993176;28;20094;-77
2022/07/23 07:43:28;;;;;;;2.97;1.25;;;28.50;63.60;;;;;;5001001;28;20054;-76
2022/07/23 07:45:54;;;;;;;5.10;1.90;;;28.20;60.30;;;;;;4994890;28;20058;-77
2022/07/23 07:48:19;;;;;;;4.60;1.40;;;28.30;55.10;;;;;;4994868;28;20112;-75
2022/07/23 07:50:47;;;;;;;2.85;1.35;;;28.20;54.90;;;;;;4994846;28;20058;-75
2022/07/23 07:53:12;;;;;;;5.05;1.67;;;28.00;55.80;;;;;;4995332;28;20062;-75
2022/07/23 07:55:38;;;;;;;4.50;1.65;;;28.00;63.00;;;;;;4995323;28;20496;-75
2022/07/23 07:58:03;;;;;;;4.18;1.60;;;27.80;56.00;;;;;;5013112;28;20088;-75
2022/07/23 08:00:29;;;;;;;5.25;1.60;;;27.60;56.40;;;;;;4994602;28;20054;-75
2022/07/23 08:02:55;;;;;;;2.83;1.48;;;27.30;56.80;;;;;;5012340;28;20342;-76
2022/07/23 08:05:26;;;;;;;4.95;1.42;;;27.00;57.40;;;;;;5012330;28;20097;-76
2022/07/23 08:07:52;;;;;;;3.65;1.52;;;26.70;58.00;;;;;;5012342;28;20062;-76
2022/07/23 08:10:19;;;;;;;5.45;1.40;;;26.70;58.60;;;;;;5012312;28;20510;-77
2022/07/23 08:12:48;;;;;;;2.33;1.30;;;26.70;58.50;;;;;;4996244;28;20920;-76
2022/07/23 08:15:15;;;;;;;3.15;1.42;;;26.40;66.30;;;;;;4998768;28;20060;-76
2022/07/23 08:17:42;;;;;;;4.22;1.30;;;26.30;58.90;;;;;;4998406;28;20105;-76
2022/07/23 08:20:09;;;;;;;3.53;1.33;;;25.90;60.10;;;;;;4998525;28;20093;-76
2022/07/23 08:22:52;;;;;;;3.15;1.10;;;25.60;61.20;;;;;;5015789;28;20084;-76
2022/07/23 08:25:25;;;;;;;3.80;1.38;;;25.80;61.00;;;;;;4981652;28;20054;-75
2022/07/23 08:27:51;;;;;;;2.17;1.23;;;25.10;62.30;;;;;;5015431;28;20054;-76
2022/07/23 08:30:18;;;;;;;5.75;1.30;;;26.00;65.20;;;;;;5015949;28;20350;-75
2022/07/23 08:33:04;;;;;;;2.22;0.82;;;25.70;67.10;;;;;;5016107;28;20050;-75
2022/07/23 08:35:35;;;;;;;6.25;1.30;;;24.70;67.00;;;;;;4981691;28;20057;-76
2022/07/23 08:38:04;;;;;;;1.40;0.80;;;24.70;67.60;;;;;;4981709;28;20054;-76
2022/07/23 08:40:32;;;;;;;6.43;1.20;;;24.90;66.70;;;;;;4998167;28;20207;-75
2022/07/23 08:42:58;;;;;;;2.60;1.05;;;25.10;65.20;;;;;;4997916;28;20049;-76
2022/07/23 08:45:25;;;;;;;1.92;1.02;;;26.50;64.30;;;;;;5015354;28;20125;-76
2022/07/23 08:47:54;;;;;;;2.88;0.85;;;27.50;64.40;;;;;;5015901;28;20484;-75
2022/07/23 08:50:21;;;;;;;3.30;1.13;;;26.00;69.20;;;;;;5015632;28;20060;-75
2022/07/23 08:52:49;;;;;;;1.98;1.00;;;25.90;61.90;;;;;;4998443;28;20053;-76
2022/07/23 08:55:17;;;;;;;4.05;0.95;;;25.70;69.90;;;;;;5015648;28;20096;-74
2022/07/23 08:57:42;;;;;;;2.95;1.00;;;25.80;61.70;;;;;;4979673;28;20052;-75
2022/07/23 09:00:09;;;;;;;1.50;0.90;;;26.10;61.30;;;;;;4998122;28;20042;-75
2022/07/23 09:02:42;;;;;;;2.05;0.90;;;25.80;67.60;;;;;;5015319;28;20058;-75
2022/07/23 09:05:13;;;;;;;6.10;1.20;;;26.20;60.20;;;;;;4998538;28;20543;-75
2022/07/23 09:08:05;;;;;;;1.50;0.90;;;25.40;61.50;;;;;;5016071;28;20058;-75
2022/07/23 09:10:47;;;;;;;2.28;1.00;;;25.00;71.90;;;;;;5014778;28;20061;-75
2022/07/23 09:13:36;;;;;;;5.45;1.10;;;25.00;62.40;;;;;;5013973;28;20050;-75
2022/07/23 09:16:18;;;;;;;2.97;1.20;;;25.00;61.40;;;;;;4997653;28;20507;-74
2022/07/23 09:18:52;;;;;;;2.55;1.20;;;25.20;61.60;;;;;;5015130;28;20049;-75
2022/07/23 09:21:28;;;;;;;2.72;0.93;;;25.50;68.50;;;;;;5015815;28;20400;-75
2022/07/23 09:24:17;;;;;;;2.80;1.10;;;25.20;60.30;;;;;;4996740;28;20057;-75
2022/07/23 09:26:47;;;;;;;2.20;1.00;;;25.20;60.10;;;;;;5014607;28;20061;-75
2022/07/23 09:29:25;;;;;;;2.95;1.20;;;25.60;61.80;;;;;;4997253;28;20061;-75
2022/07/23 09:31:56;;;;;;;2.55;1.00;;;25.30;61.00;;;;;;5014446;28;20078;-75
2022/07/23 09:34:25;;;;;;;3.58;0.90;;;25.30;60.80;;;;;;5014868;28;20049;-75
2022/07/23 09:37:09;;;;;;;1.83;1.00;;;27.20;61.90;;;;;;5014898;28;20081;-75
2022/07/23 09:39:35;;;;;;;1.73;0.90;;;25.70;60.90;;;;;;4981511;28;20057;-75
2022/07/23 09:42:17;;;;;;;3.80;0.80;;;25.70;61.50;;;;;;4997867;28;20546;-76
2022/07/23 09:44:45;;;;;;;2.58;0.90;;;25.80;61.80;;;;;;5014981;28;20139;-75
2022/07/23 09:47:10;;;;;;;3.15;1.13;;;25.70;61.20;;;;;;5015490;28;20129;-75
2022/07/23 09:49:36;;;;;;;3.30;0.90;;;25.70;62.40;;;;;;5015109;28;20129;-75
2022/07/23 09:52:02;;;;;;;1.30;0.77;;;25.90;66.50;;;;;;5015653;28;20136;-75
2022/07/23 09:54:30;;;;;;;4.78;0.95;;;25.90;65.30;;;;;;4981117;28;20060;-75
2022/07/23 09:56:57;;;;;;;1.88;0.98;;;25.80;59.00;;;;;;5014896;28;20057;-75
2022/07/23 09:59:26;;;;;;;3.67;1.00;;;25.90;59.10;;;;;;4997324;28;20054;-75
2022/07/23 10:01:54;;;;;;;2.78;1.05;;;26.60;67.50;;;;;;4996891;28;20492;-75
2022/07/23 10:04:21;;;;;;;2.00;0.90;;;25.40;66.70;;;;;;4997086;28;20046;-75
2022/07/23 10:06:47;;;;;;;6.45;1.45;;;25.30;59.50;;;;;;4997386;28;20053;-75
2022/07/23 10:09:20;;;;;;;1.48;0.90;;;25.00;60.90;;;;;;5014373;28;20496;-75
2022/07/23 10:11:47;;;;;;;2.28;1.00;;;24.60;62.90;;;;;;4997411;28;20076;-75
2022/07/23 10:14:13;;;;;;;3.20;1.00;;;25.20;64.10;;;;;;4997281;28;20111;-75
2022/07/23 10:16:39;;;;;;;1.60;1.05;;;24.60;63.90;;;;;;5014969;28;20392;-75
2022/07/23 10:19:05;;;;;;;5.53;1.10;;;24.50;64.20;;;;;;5014404;28;20053;-75
2022/07/23 10:21:46;;;;;;;2.33;0.80;;;24.30;74.80;;;;;;5014670;28;20049;-75
2022/07/23 10:24:30;;;;;;;1.23;0.80;;;24.20;66.50;;;;;;4996786;28;20108;-75
2022/07/23 10:27:08;;;;;;;1.75;1.00;;;24.40;65.10;;;;;;5014040;28;20053;-75
2022/07/23 10:29:42;;;;;;;2.17;1.13;;;24.40;64.50;;;;;;5014032;28;20496;-75
2022/07/23 10:32:40;;;;;;;0.73;0.70;;;24.70;68.90;;;;;;4996413;28;20123;-75
2022/07/23 10:35:32;;;;;;;3.15;1.20;;;24.70;63.40;;;;;;5014265;28;20073;-75
2022/07/23 10:38:21;;;;;;;1.88;1.10;;;25.40;73.90;;;;;;4996746;28;20128;-75
2022/07/23 10:40:59;;;;;;;1.65;1.20;;;25.00;63.80;;;;;;4980233;28;20053;-75
2022/07/23 10:43:27;;;;;;;2.28;1.00;;;24.90;63.40;;;;;;4996555;28;20136;-75
2022/07/23 10:45:55;;;;;;;2.70;1.10;;;24.80;63.20;;;;;;5014453;28;20464;-75
2022/07/23 10:48:26;;;;;;;4.10;1.30;;;24.80;63.70;;;;;;5014493;28;20050;-75
2022/07/23 10:51:13;;;;;;;2.03;1.05;;;27.40;66.40;;;;;;4980283;28;20050;-75
2022/07/23 10:53:50;;;;;;;2.65;1.38;;;25.00;63.70;;;;;;4996467;28;20041;-75
2022/07/23 10:56:35;;;;;;;2.55;1.20;;;25.20;71.00;;;;;;5014294;28;20077;-74
2022/07/23 10:59:04;;;;;;;3.17;1.30;;;25.10;62.30;;;;;;5013828;28;20093;-75
2022/07/23 11:01:37;;;;;;;1.75;1.10;;;25.00;62.30;;;;;;4995794;28;20403;-75
2022/07/23 11:04:07;;;;;;;2.05;1.00;;;25.00;63.90;;;;;;5013175;28;20053;-75
2022/07/23 11:06:48;;;;;;;2.20;1.30;;;25.00;63.90;;;;;;4996184;28;20057;-75
2022/07/23 11:09:38;;;;;;;2.55;0.95;;;27.30;64.30;;;;;;5014094;28;20056;-75
2022/07/23 11:12:13;;;;;;;1.27;1.00;;;25.30;61.70;;;;;;5013736;28;20148;-75
2022/07/23 11:15:10;;;;;;;1.75;1.10;;;25.30;62.30;;;;;;4995976;28;20111;-75
2022/07/23 11:17:42;;;;;;;1.52;1.20;;;25.40;64.10;;;;;;4995890;28;20093;-75
2022/07/23 11:20:12;;;;;;;3.30;1.20;;;25.20;61.20;;;;;;4980013;28;20068;-75
2022/07/23 11:22:48;;;;;;;1.27;1.10;;;26.00;63.60;;;;;;5013661;28;20054;-75
2022/07/23 11:25:35;;;;;;;2.22;1.20;;;25.40;62.90;;;;;;4995694;28;20046;-75
2022/07/23 11:28:16;;;;;;;3.28;1.40;;;25.40;60.40;;;;;;4980040;28;20081;-75
2022/07/23 11:30:45;;;;;;;2.42;1.40;;;25.30;61.50;;;;;;4995596;28;20058;-75
2022/07/23 11:33:11;;;;;;;4.95;1.30;;;25.00;60.80;;;;;;4995788;28;20436;-75
2022/07/23 11:35:39;;;;;;;2.17;1.30;;;24.70;70.80;;;;;;5013044;28;20116;-75
2022/07/23 11:38:14;;;;;;;3.45;1.30;;;24.70;62.50;;;;;;4995576;28;20085;-75
2022/07/23 11:40:40;;;;;;;;;;;24.70;63.90;;;;;;5014500;28;20357;-75
2022/07/23 11:43:08;;;;;;;1.67;1.13;;;24.70;64.50;;;;;;4995569;28;19928;-75
2022/07/23 11:45:41;;;;;;;1.80;1.17;;;25.00;65.30;;;;;;5013763;28;20085;-75
2022/07/23 11:48:16;;;;;;;1.88;1.30;;;25.20;65.10;;;;;;5015945;28;20061;-75
2022/07/23 11:50:42;;;;;;;2.40;1.33;;;25.20;65.30;;;;;;4999647;28;20061;-75
2022/07/23 11:53:08;;;;;;;4.93;1.50;;;25.20;64.80;;;;;;5017031;28;20522;-75
2022/07/23 11:55:33;;;;;;;1.40;1.30;;;25.20;71.40;;;;;;5016958;28;20112;-75
2022/07/23 11:57:59;;;;;;;1.60;1.30;;;25.00;64.80;;;;;;5017254;28;20488;-75
2022/07/23 12:00:27;;;;;;;3.35;1.60;;;24.80;64.70;;;;;;5000213;28;20408;-75
2022/07/23 12:03:01;;;;;;;3.00;1.48;;;24.70;65.70;;;;;;4999070;28;20128;-75
2022/07/23 12:05:33;;;;;;;2.53;1.30;;;24.30;64.60;;;;;;4999461;28;20054;-75
2022/07/23 12:08:00;;;;;;;2.50;1.40;;;24.00;75.50;;;;;;4999350;28;20057;-76
2022/07/23 12:10:29;;;;;;;1.48;1.30;;;24.20;67.50;;;;;;4999161;28;20069;-75
2022/07/23 12:13:03;;;;;;;2.65;1.40;;;24.30;68.50;;;;;;4999006;28;20496;-76
2022/07/23 12:15:39;;;;;;;2.35;1.40;;;24.50;69.70;;;;;;4999042;28;20061;-75
2022/07/23 12:18:06;;;;;;;1.92;1.55;;;25.90;71.80;;;;;;4998654;28;20068;-76
2022/07/23 12:20:38;;;;;;;3.35;1.30;;;25.00;73.50;;;;;;4995299;28;20057;-76
2022/07/23 12:23:07;;;;;;;2.83;1.60;;;24.90;67.70;;;;;;4998877;28;20125;-75
2022/07/23 12:25:41;;;;;;;8.13;1.67;;;25.00;67.00;;;;;;4999387;28;20056;-75
2022/07/23 12:28:11;;;;;;;3.08;1.65;;;26.60;68.70;;;;;;4998726;28;20141;-75
2022/07/23 12:30:43;;;;;;;2.55;1.70;;;25.50;73.90;;;;;;4999257;28;20392;-75
2022/07/23 12:33:15;;;;;;;2.50;1.60;;;25.50;65.70;;;;;;5016635;28;20133;-75
2022/07/23 12:35:46;;;;;;;2.55;1.63;;;25.70;66.00;;;;;;4998917;28;20068;-75
2022/07/23 12:38:17;;;;;;;6.38;1.70;;;25.40;63.90;;;;;;5016205;28;20053;-75
2022/07/23 12:40:45;;;;;;;2.28;1.60;;;26.00;64.20;;;;;;4998735;28;20061;-75
2022/07/23 12:43:25;;;;;;;4.07;1.88;;;26.10;74.00;;;;;;4998665;28;20448;-75
2022/07/23 12:46:05;;;;;;;2.20;1.58;;;26.00;70.30;;;;;;4998814;28;20104;-75
2022/07/23 12:48:36;;;;;;;4.60;1.60;;;26.10;63.50;;;;;;5016373;28;20085;-75
2022/07/23 12:51:16;;;;;;;3.47;1.60;;;25.70;63.40;;;;;;5015678;28;20129;-75
2022/07/23 12:53:44;;;;;;;2.70;1.52;;;25.50;71.90;;;;;;4997981;28;20058;-76
2022/07/23 12:56:17;;;;;;;2.67;1.58;;;25.40;64.50;;;;;;4998815;28;20403;-76
2022/07/23 12:58:44;;;;;;;3.60;1.90;;;25.60;66.10;;;;;;4974801;28;20062;-75
2022/07/23 13:01:22;;;;;;;5.28;1.90;;;25.70;66.10;;;;;;5015778;28;20054;-75
2022/07/23 13:03:59;;;;;;;4.18;1.73;;;25.80;65.00;;;;;;4998003;28;20116;-75
2022/07/23 13:06:27;;;;;;;2.42;1.70;;;26.10;65.90;;;;;;4998198;28;20093;-75